Time;durP1;ratioP1;P1;durP2;ratioP2;P2;SDS_P1;SDS_P2;PMS_P1;PMS_P2;Temp;Humidity;BMP_temperature;BMP_pressure;BME280_temperature;BME280_humidity;BME280_pressure;Samples;Min_cycle;Max_cycle;Signal;HPM_P1;HPM_P2
2023/03/18 00:01:06;;;;;;;0.20;0.20;;;;;;;8.10;69.92;100521.53;5076174;28;20455;-61
2023/03/18 00:03:38;;;;;;;0.20;0.20;;;;;;;8.03;71.00;100510.16;5075402;28;20028;-61
2023/03/18 00:06:22;;;;;;;0.20;0.20;;;;;;;8.12;70.28;100516.44;5075959;28;20033;-62
2023/03/18 00:08:49;;;;;;;0.20;0.20;;;;;;;8.16;69.21;100511.84;5075275;28;20032;-61
2023/03/18 00:11:17;;;;;;;0.20;0.20;;;;;;;8.13;69.99;100520.84;5076281;28;20024;-61
2023/03/18 00:13:46;;;;;;;0.22;0.22;;;;;;;7.84;70.45;100488.47;5075479;28;20459;-61
2023/03/18 00:16:15;;;;;;;0.20;0.20;;;;;;;7.98;71.41;100515.91;5075474;28;20029;-62
2023/03/18 00:18:44;;;;;;;0.20;0.20;;;;;;;7.99;70.78;100518.34;5075375;28;20040;-61
2023/03/18 00:21:13;;;;;;;0.20;0.20;;;;;;;7.93;70.37;100516.09;5076762;28;20455;-61
2023/03/18 00:23:47;;;;;;;0.30;0.30;;;;;;;7.88;70.31;100517.09;5076440;28;20024;-61
2023/03/18 00:26:15;;;;;;;;;;;;;;;7.88;70.95;100517.94;5075648;28;20470;-61
2023/03/18 00:28:46;;;;;;;0.20;0.20;;;;;;;7.84;71.47;100516.97;5091774;28;19915;-61
2023/03/18 00:31:14;;;;;;;0.20;0.20;;;;;;;7.76;72.39;100503.19;5075094;28;20037;-61
2023/03/18 00:33:43;;;;;;;0.30;0.30;;;;;;;7.80;72.15;100509.69;5074833;28;20020;-61
2023/03/18 00:36:12;;;;;;;0.20;0.20;;;;;;;7.80;71.94;100507.72;5075129;28;20131;-61
2023/03/18 00:38:46;;;;;;;0.22;0.22;;;;;;;7.83;71.11;100501.50;5075071;28;20356;-61
2023/03/18 00:41:17;;;;;;;0.30;0.30;;;;;;;7.75;71.27;100507.91;5075038;28;20032;-61
2023/03/18 00:43:53;;;;;;;0.20;0.20;;;;;;;7.73;71.65;100510.22;5075685;28;20059;-61
2023/03/18 00:46:24;;;;;;;0.20;0.20;;;;;;;7.65;72.28;100510.25;5074610;28;20029;-61
2023/03/18 00:48:56;;;;;;;0.20;0.20;;;;;;;7.73;72.90;100507.44;5074600;28;20035;-61
2023/03/18 00:51:27;;;;;;;0.20;0.20;;;;;;;7.77;72.04;100502.81;5075825;28;20028;-62
2023/03/18 00:53:55;;;;;;;0.20;0.20;;;;;;;7.65;71.94;100488.09;5074486;28;20486;-61
2023/03/18 00:56:26;;;;;;;0.20;0.20;;;;;;;7.51;72.09;100489.19;5074710;28;20028;-61
2023/03/18 00:58:52;;;;;;;0.30;0.30;;;;;;;7.41;72.77;100499.81;5067181;28;20076;-61
2023/03/18 01:01:21;;;;;;;0.30;0.30;;;;;;;7.47;73.38;100498.47;5054799;28;20028;-61
2023/03/18 01:03:49;;;;;;;0.30;0.30;;;;;;;7.50;74.38;100486.72;5054389;28;20025;-62
2023/03/18 01:06:23;;;;;;;0.20;0.20;;;;;;;7.58;73.84;100494.97;5054316;28;20021;-62
2023/03/18 01:08:50;;;;;;;0.30;0.30;;;;;;;7.64;73.67;100498.38;5055144;28;20029;-62
2023/03/18 01:11:18;;;;;;;0.20;0.20;;;;;;;7.52;73.33;100487.22;5052986;28;20033;-62
2023/03/18 01:13:47;;;;;;;0.20;0.20;;;;;;;7.57;73.95;100489.78;5053993;28;20037;-62
2023/03/18 01:16:19;;;;;;;0.30;0.30;;;;;;;7.58;73.35;100488.63;5054623;28;20053;-62
2023/03/18 01:18:52;;;;;;;0.30;0.30;;;;;;;7.58;74.32;100483.91;5054161;28;20434;-62
2023/03/18 01:21:18;;;;;;;0.30;0.30;;;;;;;7.53;73.76;100481.34;5053862;28;20490;-62
2023/03/18 01:23:45;;;;;;;0.30;0.30;;;;;;;7.58;74.64;100483.09;5054100;28;20033;-62
2023/03/18 01:26:11;;;;;;;0.30;0.30;;;;;;;7.57;74.10;100482.28;5054370;28;20491;-62
2023/03/18 01:28:48;;;;;;;0.30;0.30;;;;;;;7.61;73.42;100476.88;5054386;28;20036;-62
2023/03/18 01:31:17;;;;;;;0.30;0.30;;;;;;;7.63;72.09;100484.88;5055197;28;20355;-69
2023/03/18 01:33:46;;;;;;;0.20;0.20;;;;;;;7.62;72.52;100475.75;5058045;28;20083;-64
2023/03/18 01:36:18;;;;;;;0.30;0.30;;;;;;;7.61;72.24;100476.88;5056571;28;20021;-62
2023/03/18 01:38:46;;;;;;;0.30;0.30;;;;;;;7.54;71.92;100471.06;5053596;28;20124;-62
2023/03/18 01:41:16;;;;;;;0.20;0.20;;;;;;;7.42;73.00;100468.22;5053539;28;20079;-63
2023/03/18 01:43:42;;;;;;;0.20;0.20;;;;;;;7.35;73.97;100466.78;5053931;28;20087;-63
2023/03/18 01:46:29;;;;;;;0.20;0.20;;;;;;;7.27;74.16;100464.88;5054255;28;20111;-63
2023/03/18 01:49:12;;;;;;;0.28;0.28;;;;;;;7.34;75.31;100478.97;5054570;28;20071;-63
2023/03/18 01:51:45;;;;;;;0.25;0.25;;;;;;;7.43;74.20;100462.34;5055115;28;20044;-62
2023/03/18 01:54:12;;;;;;;0.20;0.20;;;;;;;7.50;73.78;100464.56;5054397;28;20069;-62
2023/03/18 01:56:41;;;;;;;0.20;0.20;;;;;;;7.41;73.55;100458.28;5054132;28;20360;-62
2023/03/18 01:59:09;;;;;;;0.20;0.20;;;;;;;7.38;73.32;100459.75;5053023;28;20053;-62
2023/03/18 02:01:48;;;;;;;0.20;0.20;;;;;;;7.33;73.79;100457.19;5053704;28;20028;-62
2023/03/18 02:04:17;;;;;;;0.20;0.20;;;;;;;7.24;74.14;100448.91;5053223;28;20067;-62
2023/03/18 02:06:46;;;;;;;0.20;0.20;;;;;;;7.22;74.29;100453.97;5053609;28;20464;-62
2023/03/18 02:09:12;;;;;;;0.25;0.25;;;;;;;7.25;74.42;100456.09;5053269;28;20047;-62
2023/03/18 02:11:41;;;;;;;0.20;0.20;;;;;;;7.28;74.36;100449.06;5053334;28;20111;-63
2023/03/18 02:14:12;;;;;;;0.30;0.30;;;;;;;7.27;74.39;100439.97;5052977;28;20487;-62
2023/03/18 02:16:45;;;;;;;0.30;0.30;;;;;;;7.31;74.81;100451.19;5054210;28;20107;-62
2023/03/18 02:19:48;;;;;;;0.30;0.30;;;;;;;7.27;75.10;100451.03;5053776;28;20037;-63
2023/03/18 02:22:34;;;;;;;0.30;0.30;;;;;;;7.34;74.58;100451.31;5052472;28;20044;-63
2023/03/18 02:25:24;;;;;;;0.20;0.20;;;;;;;7.25;74.85;100447.78;5054670;28;20115;-62
2023/03/18 02:28:02;;;;;;;0.20;0.20;;;;;;;7.17;75.75;100451.41;5054150;28;20090;-62
2023/03/18 02:30:45;;;;;;;0.30;0.30;;;;;;;7.23;75.59;100444.53;5052902;28;20096;-62
2023/03/18 02:33:18;;;;;;;0.20;0.20;;;;;;;7.18;76.08;100457.75;5053669;28;20100;-63
2023/03/18 02:35:46;;;;;;;0.30;0.30;;;;;;;7.16;77.00;100452.56;5052625;28;20040;-62
2023/03/18 02:38:14;;;;;;;0.30;0.30;;;;;;;7.14;75.73;100457.63;5052623;28;20115;-62
2023/03/18 02:40:41;;;;;;;0.20;0.20;;;;;;;7.25;75.92;100458.88;5053169;28;20428;-63
2023/03/18 02:43:21;;;;;;;0.20;0.20;;;;;;;7.17;75.91;100454.16;5052719;28;20131;-62
2023/03/18 02:45:56;;;;;;;0.20;0.20;;;;;;;7.19;76.29;100462.97;5052564;28;20021;-62
2023/03/18 02:48:26;;;;;;;0.20;0.20;;;;;;;7.23;75.72;100463.91;5053268;28;20040;-62
2023/03/18 02:50:56;;;;;;;0.20;0.20;;;;;;;7.13;76.21;100455.16;5052423;28;20066;-63
2023/03/18 02:53:25;;;;;;;0.30;0.30;;;;;;;7.05;77.03;100462.38;5054198;28;20040;-62
2023/03/18 02:55:50;;;;;;;0.30;0.30;;;;;;;7.05;76.79;100459.63;5053577;28;20112;-62
2023/03/18 02:58:16;;;;;;;0.30;0.30;;;;;;;7.09;76.64;100463.34;5056876;28;20083;-63
2023/03/18 03:00:47;;;;;;;0.20;0.20;;;;;;;7.15;77.88;100475.84;5092191;28;20028;-62
2023/03/18 03:03:13;;;;;;;0.20;0.20;;;;;;;7.13;78.11;100472.56;5076170;28;20476;-63
2023/03/18 03:05:39;;;;;;;0.20;0.20;;;;;;;7.06;77.74;100466.75;5092770;28;20077;-62
2023/03/18 03:08:05;;;;;;;0.20;0.20;;;;;;;7.17;76.96;100468.00;5075607;28;20394;-62
2023/03/18 03:10:33;;;;;;;0.20;0.20;;;;;;;7.02;77.45;100474.09;5076137;28;20110;-63
2023/03/18 03:12:59;;;;;;;0.20;0.20;;;;;;;7.03;79.18;100472.94;5076184;28;20485;-62
2023/03/18 03:15:29;;;;;;;0.30;0.30;;;;;;;7.00;77.13;100468.09;5092400;28;20020;-62
2023/03/18 03:17:59;;;;;;;0.20;0.20;;;;;;;7.11;77.95;100474.06;5076036;28;20032;-62
2023/03/18 03:20:31;;;;;;;0.20;0.20;;;;;;;7.03;79.20;100475.72;5092299;28;20018;-62
2023/03/18 03:23:00;;;;;;;0.30;0.30;;;;;;;7.07;77.76;100480.25;5092261;28;20111;-62
2023/03/18 03:25:26;;;;;;;0.20;0.20;;;;;;;7.02;77.75;100474.09;5075440;28;20039;-62
2023/03/18 03:27:52;;;;;;;0.20;0.20;;;;;;;6.97;78.06;100480.63;5075715;28;20518;-63
2023/03/18 03:30:18;;;;;;;0.30;0.30;;;;;;;7.13;77.10;100480.06;5075724;28;20486;-62
2023/03/18 03:32:46;;;;;;;0.20;0.20;;;;;;;7.06;77.33;100483.38;5075365;28;20031;-63
2023/03/18 03:35:17;;;;;;;0.30;0.30;;;;;;;7.02;78.01;100485.97;5078369;28;20104;-62
2023/03/18 03:37:46;;;;;;;0.20;0.20;;;;;;;7.07;78.13;100488.56;5096073;28;20081;-63
2023/03/18 03:40:15;;;;;;;0.20;0.20;;;;;;;7.16;76.88;100485.75;5096889;28;20427;-62
2023/03/18 03:42:42;;;;;;;0.28;0.28;;;;;;;7.09;76.98;100491.00;5079071;28;20020;-63
2023/03/18 03:45:08;;;;;;;0.20;0.20;;;;;;;7.08;78.49;100498.50;5079331;28;20028;-62
2023/03/18 03:47:37;;;;;;;0.30;0.30;;;;;;;7.04;79.04;100493.97;5079490;28;20120;-62
2023/03/18 03:50:04;;;;;;;0.30;0.30;;;;;;;7.08;77.92;100492.13;5078932;28;20070;-63
2023/03/18 03:52:36;;;;;;;0.20;0.20;;;;;;;7.01;78.28;100498.19;5097101;28;20434;-62
2023/03/18 03:55:04;;;;;;;0.30;0.30;;;;;;;7.08;79.56;100498.50;5079688;28;20343;-62
2023/03/18 03:57:32;;;;;;;0.20;0.20;;;;;;;7.02;78.44;100493.47;5096019;28;20028;-62
2023/03/18 04:00:04;;;;;;;0.30;0.30;;;;;;;6.96;80.18;100495.59;5058962;28;20057;-63
2023/03/18 04:02:34;;;;;;;0.20;0.20;;;;;;;7.10;77.62;100500.94;5055308;28;20028;-63
2023/03/18 04:04:59;;;;;;;0.20;0.20;;;;;;;6.98;77.41;100503.59;5055648;28;20040;-63
2023/03/18 04:07:25;;;;;;;0.20;0.20;;;;;;;6.97;78.46;100499.19;5055185;28;20116;-63
2023/03/18 04:09:50;;;;;;;0.30;0.30;;;;;;;7.02;78.68;100499.81;5054936;28;20033;-63
2023/03/18 04:12:19;;;;;;;0.20;0.20;;;;;;;7.04;77.63;100496.72;5055993;28;20119;-62
2023/03/18 04:14:46;;;;;;;0.20;0.20;;;;;;;6.96;78.64;100495.59;5055113;28;20032;-62
2023/03/18 04:17:13;;;;;;;0.20;0.20;;;;;;;6.88;78.66;100499.22;5055992;28;20033;-62
2023/03/18 04:19:39;;;;;;;0.20;0.20;;;;;;;6.97;78.06;100496.41;5055605;28;20036;-63
2023/03/18 04:22:07;;;;;;;0.30;0.30;;;;;;;6.86;78.81;100495.16;5054938;28;20086;-63
2023/03/18 04:24:37;;;;;;;0.20;0.20;;;;;;;6.87;79.67;100503.13;5055314;28;20024;-60
2023/03/18 04:27:09;;;;;;;0.20;0.20;;;;;;;6.99;77.27;100494.94;5055036;28;20494;-62
2023/03/18 04:29:38;;;;;;;0.20;0.20;;;;;;;6.84;77.49;100503.78;5056594;28;20115;-63
2023/03/18 04:32:04;;;;;;;0.20;0.20;;;;;;;6.73;79.27;100500.56;5060417;28;20021;-70
2023/03/18 04:34:30;;;;;;;0.20;0.20;;;;;;;6.77;79.65;100497.97;5057574;28;20036;-62
2023/03/18 04:36:56;;;;;;;0.20;0.20;;;;;;;6.77;78.89;100504.28;5055344;28;20025;-62
2023/03/18 04:39:23;;;;;;;0.20;0.20;;;;;;;6.73;80.20;100505.28;5054704;28;20033;-63
2023/03/18 04:41:49;;;;;;;0.25;0.25;;;;;;;6.73;79.13;100506.09;5054566;28;20127;-63
2023/03/18 04:44:18;;;;;;;0.30;0.30;;;;;;;6.71;79.87;100502.00;5054857;28;20068;-62
2023/03/18 04:46:49;;;;;;;0.30;0.30;;;;;;;6.76;80.18;100505.41;5055677;28;20415;-63
2023/03/18 04:49:14;;;;;;;0.20;0.20;;;;;;;6.73;79.95;100505.28;5054585;28;20098;-62
2023/03/18 04:51:42;;;;;;;0.20;0.20;;;;;;;6.74;80.56;100504.94;5054140;28;20037;-62
2023/03/18 04:54:11;;;;;;;0.20;0.20;;;;;;;6.79;79.92;100504.78;5055107;28;20032;-63
2023/03/18 04:56:39;;;;;;;0.30;0.30;;;;;;;6.70;79.38;100497.63;5056725;28;20033;-62
2023/03/18 04:59:08;;;;;;;0.30;0.30;;;;;;;6.61;79.83;100503.19;5055867;28;20060;-66
2023/03/18 05:01:36;;;;;;;0.20;0.20;;;;;;;6.61;80.17;100511.50;5056208;28;20025;-63
2023/03/18 05:04:01;;;;;;;0.30;0.30;;;;;;;6.64;81.39;100501.72;5055095;28;20124;-63
2023/03/18 05:06:30;;;;;;;0.20;0.20;;;;;;;6.65;80.91;100512.44;5054470;28;20540;-62
2023/03/18 05:08:56;;;;;;;0.30;0.30;;;;;;;6.57;80.67;100511.31;5054156;28;20464;-63
2023/03/18 05:11:22;;;;;;;0.20;0.20;;;;;;;6.68;81.56;100514.56;5055350;28;20071;-63
2023/03/18 05:13:48;;;;;;;0.20;0.20;;;;;;;6.69;81.02;100513.41;5054007;28;20033;-62
2023/03/18 05:16:17;;;;;;;0.20;0.20;;;;;;;6.80;80.86;100519.41;5054564;28;20052;-63
2023/03/18 05:18:45;;;;;;;0.20;0.20;;;;;;;6.81;80.24;100516.31;5053908;28;20029;-62
2023/03/18 05:21:14;;;;;;;0.20;0.20;;;;;;;6.76;80.09;100519.25;5054392;28;20029;-63
2023/03/18 05:23:42;;;;;;;0.20;0.20;;;;;;;6.76;80.36;100518.44;5054099;28;20029;-63
2023/03/18 05:26:12;;;;;;;0.30;0.30;;;;;;;7.18;81.08;100518.63;5054364;28;20029;-62
2023/03/18 05:28:41;;;;;;;0.20;0.20;;;;;;;7.86;77.54;100522.97;5054063;28;20029;-62
2023/03/18 05:31:10;;;;;;;0.20;0.20;;;;;;;8.61;74.55;100519.47;5054347;28;20341;-62
2023/03/18 05:33:38;;;;;;;0.20;0.20;;;;;;;9.25;70.69;100510.56;5053955;28;20028;-63
2023/03/18 05:36:08;;;;;;;0.20;0.20;;;;;;;10.00;67.72;100518.50;5053567;28;20017;-62
2023/03/18 05:38:38;;;;;;;0.20;0.20;;;;;;;10.63;63.65;100523.56;5053286;28;20033;-63
2023/03/18 05:41:09;;;;;;;0.30;0.30;;;;;;;11.34;60.86;100522.66;5054266;28;20368;-62
2023/03/18 05:43:37;;;;;;;0.20;0.20;;;;;;;11.92;58.13;100525.66;5053767;28;20102;-63
2023/03/18 05:46:05;;;;;;;0.20;0.20;;;;;;;12.48;54.80;100528.09;5053357;28;20037;-63
2023/03/18 05:48:34;;;;;;;0.20;0.20;;;;;;;13.09;53.22;100527.25;5053477;28;20052;-60
2023/03/18 05:51:03;;;;;;;0.30;0.30;;;;;;;13.58;51.33;100534.94;5053389;28;20123;-63
2023/03/18 05:53:30;;;;;;;0.20;0.20;;;;;;;13.99;49.47;100521.16;5052936;28;20039;-63
2023/03/18 05:55:58;;;;;;;0.30;0.30;;;;;;;14.34;48.70;100531.22;5053837;28;20375;-61
2023/03/18 05:58:24;;;;;;;0.30;0.30;;;;;;;14.78;47.50;100536.19;5059574;28;20044;-62
2023/03/18 06:00:51;;;;;;;0.20;0.20;;;;;;;15.16;45.64;100533.00;5076521;28;20098;-60
2023/03/18 06:03:18;;;;;;;0.20;0.20;;;;;;;15.76;45.40;100540.34;5076683;28;20339;-61
2023/03/18 06:05:49;;;;;;;0.20;0.20;;;;;;;16.18;43.71;100534.19;5094885;28;20020;-60
2023/03/18 06:08:16;;;;;;;0.20;0.20;;;;;;;16.44;42.92;100541.56;5076348;28;20028;-61
2023/03/18 06:10:44;;;;;;;0.20;0.20;;;;;;;17.05;41.68;100539.00;5076428;28;20024;-61
2023/03/18 06:13:15;;;;;;;0.20;0.20;;;;;;;17.37;41.59;100546.69;5076146;28;20120;-61
2023/03/18 06:15:41;;;;;;;0.20;0.20;;;;;;;17.60;38.39;100546.28;5092986;28;20020;-62
2023/03/18 06:18:06;;;;;;;0.20;0.20;;;;;;;17.27;38.32;100543.44;5076102;28;20027;-61
2023/03/18 06:20:32;;;;;;;0.20;0.20;;;;;;;17.51;38.39;100549.47;5076278;28;20039;-61
2023/03/18 06:23:00;;;;;;;0.20;0.20;;;;;;;18.01;38.15;100552.31;5075896;28;20028;-61
2023/03/18 06:25:31;;;;;;;0.20;0.20;;;;;;;17.79;38.04;100549.53;5075934;28;20589;-62
2023/03/18 06:27:56;;;;;;;0.20;0.20;;;;;;;18.16;37.74;100544.63;5076111;28;20497;-61
2023/03/18 06:30:29;;;;;;;0.20;0.20;;;;;;;18.36;37.90;100553.44;5092736;28;20024;-61
2023/03/18 06:33:01;;;;;;;0.20;0.20;;;;;;;18.20;36.69;100546.22;5092980;28;20026;-61
2023/03/18 06:35:27;;;;;;;0.20;0.20;;;;;;;18.62;36.92;100524.75;5076294;28;20405;-61
2023/03/18 06:37:53;;;;;;;0.20;0.20;;;;;;;19.17;35.90;100560.72;5075716;28;20070;-61
2023/03/18 06:40:23;;;;;;;0.20;0.20;;;;;;;19.10;35.98;100529.75;5092508;28;20500;-61
2023/03/18 06:42:49;;;;;;;0.20;0.20;;;;;;;19.57;35.02;100559.25;5075775;28;20060;-61
2023/03/18 06:45:16;;;;;;;0.20;0.20;;;;;;;19.67;34.60;100557.59;5075651;28;20107;-61
2023/03/18 06:47:45;;;;;;;0.20;0.20;;;;;;;19.63;33.86;100563.25;5075871;28;20066;-61
2023/03/18 06:50:14;;;;;;;0.10;0.10;;;;;;;19.68;33.89;100559.19;5075524;28;20036;-61
2023/03/18 06:52:44;;;;;;;0.20;0.20;;;;;;;19.38;33.49;100557.75;5075785;28;20055;-61
2023/03/18 06:55:10;;;;;;;0.20;0.20;;;;;;;19.20;34.80;100551.44;5093000;28;20032;-62
2023/03/18 06:57:36;;;;;;;0.20;0.20;;;;;;;18.68;34.13;100558.97;5075918;28;20028;-62
2023/03/18 07:00:03;;;;;;;0.20;0.20;;;;;;;18.90;35.28;100548.41;5057365;28;20135;-61
2023/03/18 07:02:35;;;;;;;0.20;0.20;;;;;;;18.06;37.01;100549.88;5051983;28;20025;-61
2023/03/18 07:05:03;;;;;;;0.20;0.20;;;;;;;18.74;35.61;100557.34;5052582;28;20538;-61
2023/03/18 07:07:30;;;;;;;0.20;0.20;;;;;;;17.24;37.69;100557.50;5052519;28;20033;-60
2023/03/18 07:09:58;;;;;;;0.20;0.20;;;;;;;17.84;37.08;100558.75;5054964;28;20119;-61
2023/03/18 07:12:27;;;;;;;0.20;0.20;;;;;;;18.24;35.33;100566.75;5056068;28;20124;-61
2023/03/18 07:14:57;;;;;;;0.20;0.20;;;;;;;18.27;36.13;100557.50;5056045;28;20029;-60
2023/03/18 07:17:25;;;;;;;0.20;0.20;;;;;;;18.02;36.48;100565.19;5056340;28;20067;-61
2023/03/18 07:19:50;;;;;;;0.20;0.20;;;;;;;18.01;36.99;100563.56;5056510;28;20574;-61
2023/03/18 07:22:16;;;;;;;0.20;0.20;;;;;;;17.33;38.82;100565.56;5056262;28;20033;-61
2023/03/18 07:24:43;;;;;;;0.20;0.20;;;;;;;17.46;38.08;100561.13;5056420;28;20036;-61
2023/03/18 07:27:15;;;;;;;0.10;0.10;;;;;;;18.24;37.11;100563.91;5055789;28;20060;-61
2023/03/18 07:29:43;;;;;;;0.20;0.20;;;;;;;17.40;38.12;100559.94;5056328;28;20494;-61
2023/03/18 07:32:13;;;;;;;0.20;0.20;;;;;;;17.20;38.63;100556.69;5056007;28;20107;-61
2023/03/18 07:34:41;;;;;;;0.20;0.20;;;;;;;17.44;38.38;100549.50;5055660;28;20037;-61
2023/03/18 07:37:13;;;;;;;0.20;0.20;;;;;;;17.67;37.44;100565.97;5055728;28;20503;-61
2023/03/18 07:39:45;;;;;;;0.20;0.20;;;;;;;17.90;37.59;100565.59;5055868;28;20546;-61
2023/03/18 07:42:16;;;;;;;0.20;0.20;;;;;;;17.89;37.99;100558.34;5055448;28;20021;-61
2023/03/18 07:44:46;;;;;;;0.20;0.20;;;;;;;17.94;38.12;100566.38;5055776;28;20071;-62
2023/03/18 07:47:13;;;;;;;0.20;0.20;;;;;;;17.04;38.82;100568.28;5056042;28;20021;-61
2023/03/18 07:49:44;;;;;;;0.20;0.20;;;;;;;17.33;38.47;100563.53;5055494;28;20136;-61
2023/03/18 07:52:14;;;;;;;0.20;0.20;;;;;;;17.21;39.00;100553.47;5055309;28;20025;-61
2023/03/18 07:54:40;;;;;;;0.20;0.20;;;;;;;16.90;39.21;100560.63;5055581;28;20463;-61
2023/03/18 07:57:11;;;;;;;0.20;0.20;;;;;;;17.51;38.45;100553.09;5056886;28;20021;-61
2023/03/18 07:59:40;;;;;;;0.20;0.20;;;;;;;17.44;38.51;100560.75;5055235;28;20153;-62
2023/03/18 08:02:09;;;;;;;0.20;0.20;;;;;;;17.83;38.04;100560.75;5055350;28;20190;-61
2023/03/18 08:04:38;;;;;;;0.20;0.20;;;;;;;17.59;38.66;100555.94;5055477;28;20115;-61
2023/03/18 08:07:03;;;;;;;0.20;0.20;;;;;;;17.77;38.67;100556.75;5055558;28;20043;-61
2023/03/18 08:09:29;;;;;;;0.20;0.20;;;;;;;18.23;37.61;100564.34;5055050;28;20479;-61
2023/03/18 08:11:57;;;;;;;0.20;0.20;;;;;;;18.01;38.05;100563.56;5055207;28;20025;-61
2023/03/18 08:14:23;;;;;;;0.20;0.20;;;;;;;18.36;37.44;100561.88;5054869;28;20033;-61
2023/03/18 08:16:48;;;;;;;0.20;0.20;;;;;;;19.06;37.16;100565.63;5055182;28;20083;-61
2023/03/18 08:19:17;;;;;;;0.20;0.20;;;;;;;19.54;35.48;100559.25;5055164;28;20430;-62
2023/03/18 08:21:45;;;;;;;0.10;0.10;;;;;;;19.65;35.43;100560.00;5054122;28;20090;-61
2023/03/18 08:24:11;;;;;;;0.20;0.20;;;;;;;19.51;34.94;100565.75;5054750;28;20036;-61
2023/03/18 08:26:37;;;;;;;0.10;0.10;;;;;;;19.72;36.10;100559.97;5055023;28;20029;-61
2023/03/18 08:29:02;;;;;;;0.20;0.20;;;;;;;19.16;36.87;100561.13;5054581;28;20071;-61
2023/03/18 08:31:30;;;;;;;0.20;0.20;;;;;;;18.98;36.80;100555.63;5054688;28;20048;-61
2023/03/18 08:34:01;;;;;;;0.10;0.10;;;;;;;18.89;37.13;100566.53;5054603;28;20039;-61
2023/03/18 08:36:27;;;;;;;0.10;0.10;;;;;;;19.46;36.74;100549.25;5054511;28;20476;-61
2023/03/18 08:38:55;;;;;;;0.20;0.20;;;;;;;20.46;34.67;100559.63;5054491;28;20056;-61
2023/03/18 08:41:24;;;;;;;0.13;0.13;;;;;;;20.48;34.74;100557.22;5054556;28;20083;-61
2023/03/18 08:43:56;;;;;;;0.20;0.20;;;;;;;21.01;34.38;100555.72;5054590;28;20391;-61
2023/03/18 08:46:24;;;;;;;0.10;0.10;;;;;;;21.09;34.09;100560.03;5054287;28;20029;-61
2023/03/18 08:48:52;;;;;;;0.10;0.10;;;;;;;20.82;33.62;100563.63;5054279;28;20025;-61
2023/03/18 08:51:21;;;;;;;0.20;0.20;;;;;;;21.55;33.27;100556.53;5054269;28;20409;-61
2023/03/18 08:53:49;;;;;;;0.20;0.20;;;;;;;21.98;32.08;100561.47;5054098;28;20033;-61
2023/03/18 08:56:17;;;;;;;0.10;0.10;;;;;;;22.31;32.08;100562.50;5054362;28;20029;-61
2023/03/18 08:58:44;;;;;;;0.10;0.10;;;;;;;21.11;33.43;100560.44;5053894;28;20048;-61
2023/03/18 09:01:14;;;;;;;0.20;0.20;;;;;;;20.53;34.84;100563.19;5053993;28;20029;-61
2023/03/18 09:03:42;;;;;;;0.15;0.15;;;;;;;20.30;34.90;100555.34;5054512;28;20448;-62
2023/03/18 09:06:15;;;;;;;0.20;0.20;;;;;;;20.77;33.98;100555.63;5053932;28;20029;-61
2023/03/18 09:08:41;;;;;;;;;;;;;;;21.29;32.77;100558.13;5054194;28;20029;-61
2023/03/18 09:11:10;;;;;;;0.20;0.20;;;;;;;20.92;33.13;100559.84;5070498;28;20267;-61
2023/03/18 09:13:39;;;;;;;0.15;0.15;;;;;;;20.73;34.99;100560.53;5053947;28;20041;-60
2023/03/18 09:16:09;;;;;;;0.10;0.10;;;;;;;21.55;33.36;100559.38;5053974;28;20033;-60
2023/03/18 09:18:39;;;;;;;0.10;0.10;;;;;;;21.04;34.53;100557.69;5054249;28;20380;-60
2023/03/18 09:21:05;;;;;;;0.10;0.10;;;;;;;20.18;34.98;100564.34;5053812;28;20041;-60
2023/03/18 09:23:34;;;;;;;0.20;0.20;;;;;;;19.25;36.91;100548.19;5054294;28;20106;-60
2023/03/18 09:26:06;;;;;;;0.10;0.10;;;;;;;19.51;36.32;100555.25;5054790;28;20037;-60
2023/03/18 09:28:33;;;;;;;0.20;0.20;;;;;;;19.63;35.91;100556.81;5054288;28;20478;-60
2023/03/18 09:31:01;;;;;;;0.20;0.20;;;;;;;19.81;35.85;100556.63;5053093;28;20044;-61
2023/03/18 09:33:29;;;;;;;0.20;0.20;;;;;;;20.16;36.09;100555.50;5053620;28;20341;-61
2023/03/18 09:36:00;;;;;;;0.20;0.20;;;;;;;20.70;34.45;100549.25;5053314;28;20468;-61
2023/03/18 09:38:28;;;;;;;0.20;0.20;;;;;;;20.93;33.87;100543.69;5053216;28;20029;-61
2023/03/18 09:41:02;;;;;;;0.20;0.20;;;;;;;20.95;34.53;100555.41;5053855;28;20027;-60
2023/03/18 09:43:46;;;;;;;0.10;0.10;;;;;;;20.08;35.79;100551.97;5054054;28;20028;-60
2023/03/18 09:46:25;;;;;;;0.20;0.20;;;;;;;19.71;35.83;100555.53;5053783;28;20491;-61
2023/03/18 09:49:10;;;;;;;0.20;0.20;;;;;;;19.83;35.99;100554.22;5053080;28;20120;-62
2023/03/18 09:52:00;;;;;;;0.20;0.20;;;;;;;19.87;35.81;100550.16;5053715;28;20105;-60
2023/03/18 09:54:47;;;;;;;0.20;0.20;;;;;;;21.30;33.86;100550.47;5053746;28;20021;-61
2023/03/18 09:57:30;;;;;;;0.20;0.20;;;;;;;20.79;35.67;100552.38;5053392;28;20025;-60
2023/03/18 10:00:16;;;;;;;0.20;0.20;;;;;;;20.44;34.47;100543.06;5081473;28;20070;-61
2023/03/18 10:02:50;;;;;;;0.17;0.17;;;;;;;20.68;33.74;100546.88;5076092;28;20024;-60
2023/03/18 10:05:40;;;;;;;0.10;0.10;;;;;;;20.10;35.15;100541.03;5094898;28;20035;-61
2023/03/18 10:08:18;;;;;;;0.10;0.10;;;;;;;20.58;34.49;100536.50;5093526;28;20093;-61
2023/03/18 10:10:46;;;;;;;0.13;0.13;;;;;;;20.31;33.44;100523.06;5093455;28;20027;-60
2023/03/18 10:13:35;;;;;;;0.20;0.20;;;;;;;20.61;33.55;100542.13;5076042;28;20035;-61
2023/03/18 10:16:09;;;;;;;0.20;0.20;;;;;;;20.92;33.30;100539.25;5075586;28;20482;-60
2023/03/18 10:18:42;;;;;;;0.10;0.10;;;;;;;20.71;33.99;100537.53;5093131;28;20558;-60
2023/03/18 10:21:22;;;;;;;0.20;0.20;;;;;;;20.53;34.17;100539.78;5076387;28;20532;-60
2023/03/18 10:24:00;;;;;;;0.13;0.13;;;;;;;20.41;34.50;100541.91;5075701;28;20067;-61
2023/03/18 10:26:35;;;;;;;0.20;0.20;;;;;;;20.24;34.96;100530.78;5093469;28;20458;-61
2023/03/18 10:29:36;;;;;;;0.10;0.10;;;;;;;20.05;35.84;100532.22;5094244;28;20024;-60
2023/03/18 10:32:13;;;;;;;0.15;0.15;;;;;;;20.24;35.48;100537.28;5075750;28;20070;-60
2023/03/18 10:35:01;;;;;;;0.20;0.20;;;;;;;21.64;33.55;100527.69;5075878;28;20482;-61
2023/03/18 10:37:59;;;;;;;0.10;0.10;;;;;;;21.36;33.08;100532.59;5064890;28;20040;-60
2023/03/18 10:40:36;;;;;;;0.20;0.20;;;;;;;20.08;35.91;100525.72;5064611;28;20490;-60
2023/03/18 10:43:13;;;;;;;0.10;0.10;;;;;;;20.27;34.61;100522.28;5075112;28;20024;-60
2023/03/18 10:45:41;;;;;;;0.20;0.20;;;;;;;20.60;33.83;100525.56;5075880;28;20039;-60
2023/03/18 10:48:19;;;;;;;0.20;0.20;;;;;;;20.80;34.08;100534.97;5076237;28;20074;-60
2023/03/18 10:51:03;;;;;;;0.10;0.10;;;;;;;21.38;33.08;100527.28;5075799;28;20515;-60
2023/03/18 10:53:37;;;;;;;;;;;;;;;21.08;33.23;100527.31;5076642;28;20047;-61
2023/03/18 10:56:11;;;;;;;0.13;0.13;;;;;;;20.72;33.29;100516.53;5092294;28;19908;-60
2023/03/18 10:58:46;;;;;;;0.10;0.10;;;;;;;21.29;32.65;100515.69;5092417;28;20063;-61
2023/03/18 11:01:18;;;;;;;0.20;0.20;;;;;;;21.61;32.86;100520.03;5075304;28;20031;-60
2023/03/18 11:03:56;;;;;;;0.15;0.15;;;;;;;21.83;32.78;100512.78;5076017;28;20027;-60
2023/03/18 11:06:38;;;;;;;0.20;0.20;;;;;;;20.55;33.93;100507.03;5075378;28;20024;-61
2023/03/18 11:09:15;;;;;;;0.15;0.15;;;;;;;20.73;34.23;100503.19;5075417;28;20028;-60
2023/03/18 11:11:47;;;;;;;0.20;0.20;;;;;;;20.76;34.26;100508.78;5075587;28;20032;-60
2023/03/18 11:14:21;;;;;;;0.20;0.20;;;;;;;20.54;34.42;100508.25;5093490;28;20657;-60
2023/03/18 11:16:59;;;;;;;0.10;0.10;;;;;;;20.70;34.39;100507.66;5093785;28;20024;-60
2023/03/18 11:19:34;;;;;;;0.10;0.10;;;;;;;20.61;33.72;100507.34;5075833;28;20032;-60
2023/03/18 11:22:12;;;;;;;0.17;0.17;;;;;;;20.48;34.39;100498.66;5093089;28;20028;-60
2023/03/18 11:24:41;;;;;;;0.10;0.10;;;;;;;20.97;33.74;100502.03;5076063;28;20356;-60
2023/03/18 11:27:16;;;;;;;0.20;0.20;;;;;;;21.25;33.37;100503.59;5093721;28;20181;-60
2023/03/18 11:29:45;;;;;;;0.20;0.20;;;;;;;21.27;32.84;100498.34;5075280;28;20028;-61
2023/03/18 11:32:32;;;;;;;0.20;0.20;;;;;;;21.02;32.53;100492.25;5076018;28;20419;-61
2023/03/18 11:35:09;;;;;;;0.20;0.20;;;;;;;21.06;33.02;100487.34;5075792;28;20081;-61
2023/03/18 11:37:39;;;;;;;0.10;0.10;;;;;;;20.50;34.15;100461.47;5075480;28;20020;-61
2023/03/18 11:40:14;;;;;;;0.20;0.20;;;;;;;19.59;35.50;100483.44;5075166;28;20028;-61
2023/03/18 11:42:43;;;;;;;0.10;0.10;;;;;;;20.20;34.80;100477.16;5092604;28;20109;-61
2023/03/18 11:45:33;;;;;;;0.20;0.20;;;;;;;19.63;35.56;100478.56;5074938;28;20031;-61